sensor_id;sensor_type;location;lat;lon;timestamp;temperature;humidity
56268;DHT22;42175;46.930;9.532;2023-06-14T00:01:21;25.40;39.10
56268;DHT22;42175;46.930;9.532;2023-06-14T00:03:47;25.40;39.20
56268;DHT22;42175;46.930;9.532;2023-06-14T00:06:14;25.40;39.20
56268;DHT22;42175;46.930;9.532;2023-06-14T00:08:40;25.40;39.20
56268;DHT22;42175;46.930;9.532;2023-06-14T00:11:06;25.40;39.30
56268;DHT22;42175;46.930;9.532;2023-06-14T00:13:32;25.40;39.30
56268;DHT22;42175;46.930;9.532;2023-06-14T00:15:57;25.40;39.20
56268;DHT22;42175;46.930;9.532;2023-06-14T00:18:23;25.40;39.20
56268;DHT22;42175;46.930;9.532;2023-06-14T00:20:55;25.40;39.20
56268;DHT22;42175;46.930;9.532;2023-06-14T00:23:21;25.40;39.20
56268;DHT22;42175;46.930;9.532;2023-06-14T00:25:47;25.30;39.10
56268;DHT22;42175;46.930;9.532;2023-06-14T00:28:13;25.30;39.20
56268;DHT22;42175;46.930;9.532;2023-06-14T00:30:39;25.40;39.20
56268;DHT22;42175;46.930;9.532;2023-06-14T00:33:05;25.40;39.20
56268;DHT22;42175;46.930;9.532;2023-06-14T00:35:31;25.30;39.20
56268;DHT22;42175;46.930;9.532;2023-06-14T00:37:56;25.30;39.30
56268;DHT22;42175;46.930;9.532;2023-06-14T00:40:22;25.40;39.30
56268;DHT22;42175;46.930;9.532;2023-06-14T00:42:48;25.40;39.30
56268;DHT22;42175;46.930;9.532;2023-06-14T00:45:15;25.30;39.10
56268;DHT22;42175;46.930;9.532;2023-06-14T00:47:41;25.40;39.50
56268;DHT22;42175;46.930;9.532;2023-06-14T00:50:09;25.30;39.30
56268;DHT22;42175;46.930;9.532;2023-06-14T00:52:35;25.40;39.50
56268;DHT22;42175;46.930;9.532;2023-06-14T00:55:01;25.40;39.50
56268;DHT22;42175;46.930;9.532;2023-06-14T00:57:27;25.40;39.60
56268;DHT22;42175;46.930;9.532;2023-06-14T00:59:55;25.40;39.70
56268;DHT22;42175;46.930;9.532;2023-06-14T01:02:21;25.40;39.50
56268;DHT22;42175;46.930;9.532;2023-06-14T01:04:48;25.40;39.50
56268;DHT22;42175;46.930;9.532;2023-06-14T01:07:36;25.40;39.50
56268;DHT22;42175;46.930;9.532;2023-06-14T01:10:31;25.40;39.50
56268;DHT22;42175;46.930;9.532;2023-06-14T01:15:34;25.30;39.30
56268;DHT22;42175;46.930;9.532;2023-06-14T01:18:00;25.40;39.70
56268;DHT22;42175;46.930;9.532;2023-06-14T01:20:33;25.40;39.60
56268;DHT22;42175;46.930;9.532;2023-06-14T01:23:02;25.40;39.70
56268;DHT22;42175;46.930;9.532;2023-06-14T01:25:27;25.40;39.80
56268;DHT22;42175;46.930;9.532;2023-06-14T01:28:02;25.30;39.70
56268;DHT22;42175;46.930;9.532;2023-06-14T01:30:29;25.30;39.70
56268;DHT22;42175;46.930;9.532;2023-06-14T01:32:57;25.40;39.80
56268;DHT22;42175;46.930;9.532;2023-06-14T01:35:23;25.40;39.80
56268;DHT22;42175;46.930;9.532;2023-06-14T01:37:50;25.40;39.80
56268;DHT22;42175;46.930;9.532;2023-06-14T01:40:18;25.40;39.70
56268;DHT22;42175;46.930;9.532;2023-06-14T01:42:47;25.40;39.80
56268;DHT22;42175;46.930;9.532;2023-06-14T01:45:15;25.30;40.50
56268;DHT22;42175;46.930;9.532;2023-06-14T01:47:43;25.40;39.90
56268;DHT22;42175;46.930;9.532;2023-06-14T01:50:09;25.40;40.00
56268;DHT22;42175;46.930;9.532;2023-06-14T01:52:37;25.40;40.00
56268;DHT22;42175;46.930;9.532;2023-06-14T01:55:03;25.40;40.10
56268;DHT22;42175;46.930;9.532;2023-06-14T01:57:29;25.40;40.10
56268;DHT22;42175;46.930;9.532;2023-06-14T01:59:55;25.40;40.10
56268;DHT22;42175;46.930;9.532;2023-06-14T02:02:20;25.40;40.10
56268;DHT22;42175;46.930;9.532;2023-06-14T02:04:46;25.40;40.10
56268;DHT22;42175;46.930;9.532;2023-06-14T02:07:13;25.40;40.10
56268;DHT22;42175;46.930;9.532;2023-06-14T02:09:40;25.40;40.20
56268;DHT22;42175;46.930;9.532;2023-06-14T02:12:06;25.40;40.20
56268;DHT22;42175;46.930;9.532;2023-06-14T02:14:32;25.40;40.30
56268;DHT22;42175;46.930;9.532;2023-06-14T02:16:59;25.40;40.80
56268;DHT22;42175;46.930;9.532;2023-06-14T02:19:26;25.40;40.20
56268;DHT22;42175;46.930;9.532;2023-06-14T02:21:52;25.40;40.20
56268;DHT22;42175;46.930;9.532;2023-06-14T02:24:18;25.40;40.20
56268;DHT22;42175;46.930;9.532;2023-06-14T02:26:44;25.40;40.20
56268;DHT22;42175;46.930;9.532;2023-06-14T02:29:09;25.40;40.30
56268;DHT22;42175;46.930;9.532;2023-06-14T02:31:38;25.40;40.30
56268;DHT22;42175;46.930;9.532;2023-06-14T02:34:03;25.40;40.20
56268;DHT22;42175;46.930;9.532;2023-06-14T02:36:30;25.40;40.30
56268;DHT22;42175;46.930;9.532;2023-06-14T02:38:56;25.40;40.20
56268;DHT22;42175;46.930;9.532;2023-06-14T02:41:26;25.40;40.30
56268;DHT22;42175;46.930;9.532;2023-06-14T02:43:53;25.40;40.70
56268;DHT22;42175;46.930;9.532;2023-06-14T02:46:19;25.40;40.00
56268;DHT22;42175;46.930;9.532;2023-06-14T02:48:44;25.40;40.10
56268;DHT22;42175;46.930;9.532;2023-06-14T02:51:10;25.40;40.10
56268;DHT22;42175;46.930;9.532;2023-06-14T02:53:36;25.40;40.00
56268;DHT22;42175;46.930;9.532;2023-06-14T02:56:02;25.40;40.00
56268;DHT22;42175;46.930;9.532;2023-06-14T02:58:29;25.40;40.00
56268;DHT22;42175;46.930;9.532;2023-06-14T03:00:55;25.40;40.10
56268;DHT22;42175;46.930;9.532;2023-06-14T03:03:21;25.40;40.00
56268;DHT22;42175;46.930;9.532;2023-06-14T03:05:50;25.40;40.10
56268;DHT22;42175;46.930;9.532;2023-06-14T03:08:17;25.40;40.10
56268;DHT22;42175;46.930;9.532;2023-06-14T03:10:45;25.40;40.10
56268;DHT22;42175;46.930;9.532;2023-06-14T03:13:12;25.40;40.10
56268;DHT22;42175;46.930;9.532;2023-06-14T03:15:38;25.30;40.00
56268;DHT22;42175;46.930;9.532;2023-06-14T03:18:08;25.40;40.00
56268;DHT22;42175;46.930;9.532;2023-06-14T03:20:35;25.40;40.00
56268;DHT22;42175;46.930;9.532;2023-06-14T03:23:02;25.40;39.90
56268;DHT22;42175;46.930;9.532;2023-06-14T03:25:28;25.40;39.80
56268;DHT22;42175;46.930;9.532;2023-06-14T03:27:55;25.40;40.00
56268;DHT22;42175;46.930;9.532;2023-06-14T03:30:21;25.40;39.90
56268;DHT22;42175;46.930;9.532;2023-06-14T03:32:47;25.40;40.00
56268;DHT22;42175;46.930;9.532;2023-06-14T03:35:13;25.40;40.00
56268;DHT22;42175;46.930;9.532;2023-06-14T03:37:46;25.40;40.00
56268;DHT22;42175;46.930;9.532;2023-06-14T03:40:14;25.40;40.00
56268;DHT22;42175;46.930;9.532;2023-06-14T03:42:40;25.40;39.90
56268;DHT22;42175;46.930;9.532;2023-06-14T03:45:07;25.40;40.00
56268;DHT22;42175;46.930;9.532;2023-06-14T03:47:33;25.40;39.90
56268;DHT22;42175;46.930;9.532;2023-06-14T03:50:00;25.40;40.10
56268;DHT22;42175;46.930;9.532;2023-06-14T03:52:26;25.40;40.00
56268;DHT22;42175;46.930;9.532;2023-06-14T03:54:52;25.40;40.10
56268;DHT22;42175;46.930;9.532;2023-06-14T03:57:19;25.40;40.10
56268;DHT22;42175;46.930;9.532;2023-06-14T03:59:45;25.40;40.00
56268;DHT22;42175;46.930;9.532;2023-06-14T04:02:12;25.40;40.00
56268;DHT22;42175;46.930;9.532;2023-06-14T04:04:41;25.40;40.10
56268;DHT22;42175;46.930;9.532;2023-06-14T04:07:10;25.40;40.20
56268;DHT22;42175;46.930;9.532;2023-06-14T04:09:37;25.40;40.20
56268;DHT22;42175;46.930;9.532;2023-06-14T04:12:03;25.40;40.10
56268;DHT22;42175;46.930;9.532;2023-06-14T04:14:29;25.40;40.00
56268;DHT22;42175;46.930;9.532;2023-06-14T04:16:56;25.40;40.10
56268;DHT22;42175;46.930;9.532;2023-06-14T04:19:22;25.40;40.10
56268;DHT22;42175;46.930;9.532;2023-06-14T04:21:47;25.40;40.10
56268;DHT22;42175;46.930;9.532;2023-06-14T04:24:13;25.40;39.80
56268;DHT22;42175;46.930;9.532;2023-06-14T04:26:42;25.40;39.60
56268;DHT22;42175;46.930;9.532;2023-06-14T04:29:12;25.40;39.70
56268;DHT22;42175;46.930;9.532;2023-06-14T04:31:45;25.40;39.80
56268;DHT22;42175;46.930;9.532;2023-06-14T04:34:12;25.40;39.80
56268;DHT22;42175;46.930;9.532;2023-06-14T04:36:44;25.40;40.50
56268;DHT22;42175;46.930;9.532;2023-06-14T04:39:18;25.40;39.60
56268;DHT22;42175;46.930;9.532;2023-06-14T04:41:44;25.40;39.70
56268;DHT22;42175;46.930;9.532;2023-06-14T04:44:10;25.40;39.10
56268;DHT22;42175;46.930;9.532;2023-06-14T04:46:36;25.30;39.00
56268;DHT22;42175;46.930;9.532;2023-06-14T04:49:12;25.30;38.90
56268;DHT22;42175;46.930;9.532;2023-06-14T04:51:40;25.40;38.80
56268;DHT22;42175;46.930;9.532;2023-06-14T04:54:05;25.40;39.00
56268;DHT22;42175;46.930;9.532;2023-06-14T04:56:35;25.40;38.80
56268;DHT22;42175;46.930;9.532;2023-06-14T04:59:02;25.40;38.60
56268;DHT22;42175;46.930;9.532;2023-06-14T05:01:30;25.30;38.90
56268;DHT22;42175;46.930;9.532;2023-06-14T05:03:57;25.40;38.90
56268;DHT22;42175;46.930;9.532;2023-06-14T05:06:23;25.40;38.80
56268;DHT22;42175;46.930;9.532;2023-06-14T05:08:49;25.30;38.70
56268;DHT22;42175;46.930;9.532;2023-06-14T05:11:16;25.40;38.60
56268;DHT22;42175;46.930;9.532;2023-06-14T05:13:43;25.30;36.90
56268;DHT22;42175;46.930;9.532;2023-06-14T05:16:11;24.80;35.60
56268;DHT22;42175;46.930;9.532;2023-06-14T05:18:37;24.50;35.10
56268;DHT22;42175;46.930;9.532;2023-06-14T05:21:03;24.40;36.20
56268;DHT22;42175;46.930;9.532;2023-06-14T05:23:32;24.20;35.60
56268;DHT22;42175;46.930;9.532;2023-06-14T05:25:58;24.30;36.70
56268;DHT22;42175;46.930;9.532;2023-06-14T05:28:24;24.20;37.20
56268;DHT22;42175;46.930;9.532;2023-06-14T05:30:50;24.20;37.30
56268;DHT22;42175;46.930;9.532;2023-06-14T05:33:16;24.10;37.50
56268;DHT22;42175;46.930;9.532;2023-06-14T05:35:42;24.00;38.00
56268;DHT22;42175;46.930;9.532;2023-06-14T05:38:08;23.70;38.80
56268;DHT22;42175;46.930;9.532;2023-06-14T05:40:34;23.60;39.00
56268;DHT22;42175;46.930;9.532;2023-06-14T05:42:59;23.60;39.20
56268;DHT22;42175;46.930;9.532;2023-06-14T05:45:25;23.50;39.10
56268;DHT22;42175;46.930;9.532;2023-06-14T05:47:51;23.50;39.50
56268;DHT22;42175;46.930;9.532;2023-06-14T05:50:17;23.40;39.60
56268;DHT22;42175;46.930;9.532;2023-06-14T05:52:43;23.40;39.80
56268;DHT22;42175;46.930;9.532;2023-06-14T05:55:09;23.40;39.80
56268;DHT22;42175;46.930;9.532;2023-06-14T05:57:37;23.50;39.90
56268;DHT22;42175;46.930;9.532;2023-06-14T06:00:03;23.50;39.90
56268;DHT22;42175;46.930;9.532;2023-06-14T06:02:43;23.40;40.00
56268;DHT22;42175;46.930;9.532;2023-06-14T06:05:10;23.30;40.30
56268;DHT22;42175;46.930;9.532;2023-06-14T06:07:36;23.30;40.10
56268;DHT22;42175;46.930;9.532;2023-06-14T06:10:03;23.20;40.50
56268;DHT22;42175;46.930;9.532;2023-06-14T06:12:30;23.20;40.60
56268;DHT22;42175;46.930;9.532;2023-06-14T06:14:56;23.10;40.70
56268;DHT22;42175;46.930;9.532;2023-06-14T06:17:22;23.10;40.80
56268;DHT22;42175;46.930;9.532;2023-06-14T06:19:47;23.00;40.80
56268;DHT22;42175;46.930;9.532;2023-06-14T06:22:13;22.90;40.80
56268;DHT22;42175;46.930;9.532;2023-06-14T06:24:39;23.10;40.60
56268;DHT22;42175;46.930;9.532;2023-06-14T06:27:05;23.00;40.20
56268;DHT22;42175;46.930;9.532;2023-06-14T06:29:33;23.10;40.30
56268;DHT22;42175;46.930;9.532;2023-06-14T06:31:59;23.10;39.70
56268;DHT22;42175;46.930;9.532;2023-06-14T06:34:25;23.10;39.20
56268;DHT22;42175;46.930;9.532;2023-06-14T06:36:51;23.00;39.90
56268;DHT22;42175;46.930;9.532;2023-06-14T06:39:16;23.10;40.30
56268;DHT22;42175;46.930;9.532;2023-06-14T06:41:42;23.20;40.30
56268;DHT22;42175;46.930;9.532;2023-06-14T06:44:08;23.20;40.10
56268;DHT22;42175;46.930;9.532;2023-06-14T06:46:36;23.20;40.50
56268;DHT22;42175;46.930;9.532;2023-06-14T06:49:08;23.20;40.80
56268;DHT22;42175;46.930;9.532;2023-06-14T06:51:35;23.10;40.80
56268;DHT22;42175;46.930;9.532;2023-06-14T06:54:02;23.10;41.10
56268;DHT22;42175;46.930;9.532;2023-06-14T06:56:27;23.20;41.00
56268;DHT22;42175;46.930;9.532;2023-06-14T06:58:53;23.30;40.90
56268;DHT22;42175;46.930;9.532;2023-06-14T07:01:19;23.40;40.80
56268;DHT22;42175;46.930;9.532;2023-06-14T07:03:45;23.40;40.40
56268;DHT22;42175;46.930;9.532;2023-06-14T07:06:11;23.50;40.60
56268;DHT22;42175;46.930;9.532;2023-06-14T07:08:38;23.30;40.50
56268;DHT22;42175;46.930;9.532;2023-06-14T07:11:04;23.40;40.50
56268;DHT22;42175;46.930;9.532;2023-06-14T07:13:30;23.50;40.40
56268;DHT22;42175;46.930;9.532;2023-06-14T07:15:59;23.50;40.40
56268;DHT22;42175;46.930;9.532;2023-06-14T07:18:26;23.50;40.00
56268;DHT22;42175;46.930;9.532;2023-06-14T07:20:52;23.40;40.20
56268;DHT22;42175;46.930;9.532;2023-06-14T07:23:19;23.40;39.90
56268;DHT22;42175;46.930;9.532;2023-06-14T07:25:46;23.50;40.10
56268;DHT22;42175;46.930;9.532;2023-06-14T07:28:11;23.60;40.10
56268;DHT22;42175;46.930;9.532;2023-06-14T07:30:37;23.50;39.70
56268;DHT22;42175;46.930;9.532;2023-06-14T07:33:03;23.50;39.50
56268;DHT22;42175;46.930;9.532;2023-06-14T07:35:28;23.50;39.80
56268;DHT22;42175;46.930;9.532;2023-06-14T07:37:54;23.50;40.00
56268;DHT22;42175;46.930;9.532;2023-06-14T07:40:20;23.60;39.90
56268;DHT22;42175;46.930;9.532;2023-06-14T07:42:46;23.60;40.30
56268;DHT22;42175;46.930;9.532;2023-06-14T07:45:13;23.40;39.90
56268;DHT22;42175;46.930;9.532;2023-06-14T07:47:39;23.30;39.60
56268;DHT22;42175;46.930;9.532;2023-06-14T07:50:05;23.40;39.10
56268;DHT22;42175;46.930;9.532;2023-06-14T07:52:31;23.50;39.40
56268;DHT22;42175;46.930;9.532;2023-06-14T07:54:57;23.50;39.00
56268;DHT22;42175;46.930;9.532;2023-06-14T07:57:24;23.60;38.90
56268;DHT22;42175;46.930;9.532;2023-06-14T07:59:50;23.60;38.90
56268;DHT22;42175;46.930;9.532;2023-06-14T08:02:16;23.70;38.60
56268;DHT22;42175;46.930;9.532;2023-06-14T08:04:42;23.80;38.00
56268;DHT22;42175;46.930;9.532;2023-06-14T08:07:08;23.70;37.70
56268;DHT22;42175;46.930;9.532;2023-06-14T08:09:35;23.80;37.40
56268;DHT22;42175;46.930;9.532;2023-06-14T08:12:04;23.70;37.60
56268;DHT22;42175;46.930;9.532;2023-06-14T08:14:33;23.70;37.60
56268;DHT22;42175;46.930;9.532;2023-06-14T08:16:59;23.70;37.70
56268;DHT22;42175;46.930;9.532;2023-06-14T08:19:25;23.70;37.80
56268;DHT22;42175;46.930;9.532;2023-06-14T08:21:51;23.80;37.40
56268;DHT22;42175;46.930;9.532;2023-06-14T08:24:16;23.80;37.30
56268;DHT22;42175;46.930;9.532;2023-06-14T08:26:44;23.80;37.50
56268;DHT22;42175;46.930;9.532;2023-06-14T08:29:10;23.80;37.30
56268;DHT22;42175;46.930;9.532;2023-06-14T08:31:35;23.80;37.70
56268;DHT22;42175;46.930;9.532;2023-06-14T08:34:01;23.80;38.10
56268;DHT22;42175;46.930;9.532;2023-06-14T08:36:27;23.90;37.40
56268;DHT22;42175;46.930;9.532;2023-06-14T08:38:52;23.90;37.70
56268;DHT22;42175;46.930;9.532;2023-06-14T08:41:21;24.00;37.30
56268;DHT22;42175;46.930;9.532;2023-06-14T08:43:51;23.90;36.90
56268;DHT22;42175;46.930;9.532;2023-06-14T08:46:18;23.90;37.60
56268;DHT22;42175;46.930;9.532;2023-06-14T08:48:52;23.90;37.40
56268;DHT22;42175;46.930;9.532;2023-06-14T08:51:19;24.00;36.70
56268;DHT22;42175;46.930;9.532;2023-06-14T08:53:53;24.00;36.90
56268;DHT22;42175;46.930;9.532;2023-06-14T08:56:26;24.00;36.90
56268;DHT22;42175;46.930;9.532;2023-06-14T08:58:53;24.00;37.40
56268;DHT22;42175;46.930;9.532;2023-06-14T09:01:20;24.10;37.30
56268;DHT22;42175;46.930;9.532;2023-06-14T09:03:48;24.10;37.20
56268;DHT22;42175;46.930;9.532;2023-06-14T09:06:14;24.10;37.30
56268;DHT22;42175;46.930;9.532;2023-06-14T09:08:45;24.10;37.10
56268;DHT22;42175;46.930;9.532;2023-06-14T09:11:12;24.20;37.40
56268;DHT22;42175;46.930;9.532;2023-06-14T09:13:39;24.10;37.20
56268;DHT22;42175;46.930;9.532;2023-06-14T09:16:08;24.20;37.10
56268;DHT22;42175;46.930;9.532;2023-06-14T09:18:43;24.20;37.50
56268;DHT22;42175;46.930;9.532;2023-06-14T09:21:10;24.30;36.20
56268;DHT22;42175;46.930;9.532;2023-06-14T09:23:45;24.20;36.80
56268;DHT22;42175;46.930;9.532;2023-06-14T09:26:12;24.20;37.10
56268;DHT22;42175;46.930;9.532;2023-06-14T09:28:43;24.30;36.60
56268;DHT22;42175;46.930;9.532;2023-06-14T09:31:16;24.30;37.10
56268;DHT22;42175;46.930;9.532;2023-06-14T09:33:45;24.30;36.10
56268;DHT22;42175;46.930;9.532;2023-06-14T09:36:23;24.20;36.70
56268;DHT22;42175;46.930;9.532;2023-06-14T09:38:54;24.30;36.80
56268;DHT22;42175;46.930;9.532;2023-06-14T09:41:20;24.30;37.20
56268;DHT22;42175;46.930;9.532;2023-06-14T09:43:47;24.30;37.20
56268;DHT22;42175;46.930;9.532;2023-06-14T09:46:13;24.40;36.30
56268;DHT22;42175;46.930;9.532;2023-06-14T09:48:39;24.40;36.70
56268;DHT22;42175;46.930;9.532;2023-06-14T09:51:10;24.40;37.20
56268;DHT22;42175;46.930;9.532;2023-06-14T09:53:41;24.40;37.10
56268;DHT22;42175;46.930;9.532;2023-06-14T09:56:09;24.50;37.00
56268;DHT22;42175;46.930;9.532;2023-06-14T09:58:37;24.60;36.30
56268;DHT22;42175;46.930;9.532;2023-06-14T10:01:07;24.50;36.30
56268;DHT22;42175;46.930;9.532;2023-06-14T10:03:34;24.60;36.50
56268;DHT22;42175;46.930;9.532;2023-06-14T10:06:03;24.60;36.60
56268;DHT22;42175;46.930;9.532;2023-06-14T10:08:30;24.60;36.20
56268;DHT22;42175;46.930;9.532;2023-06-14T10:10:58;24.60;35.60
56268;DHT22;42175;46.930;9.532;2023-06-14T10:13:26;24.50;35.50
56268;DHT22;42175;46.930;9.532;2023-06-14T10:19:04;24.40;37.00
56268;DHT22;42175;46.930;9.532;2023-06-14T10:21:33;24.60;36.30
56268;DHT22;42175;46.930;9.532;2023-06-14T10:24:06;24.60;35.80
56268;DHT22;42175;46.930;9.532;2023-06-14T10:26:32;24.60;35.40
56268;DHT22;42175;46.930;9.532;2023-06-14T10:29:10;24.70;35.50
56268;DHT22;42175;46.930;9.532;2023-06-14T10:31:43;24.80;35.30
56268;DHT22;42175;46.930;9.532;2023-06-14T10:34:09;24.70;35.30
56268;DHT22;42175;46.930;9.532;2023-06-14T10:36:35;24.70;35.90
56268;DHT22;42175;46.930;9.532;2023-06-14T10:41:38;24.80;35.50
56268;DHT22;42175;46.930;9.532;2023-06-14T10:46:40;24.90;35.10
56268;DHT22;42175;46.930;9.532;2023-06-14T10:49:06;24.90;35.40
56268;DHT22;42175;46.930;9.532;2023-06-14T10:51:41;24.90;35.20
56268;DHT22;42175;46.930;9.532;2023-06-14T10:54:12;24.90;35.30
56268;DHT22;42175;46.930;9.532;2023-06-14T10:56:48;24.90;36.00
56268;DHT22;42175;46.930;9.532;2023-06-14T10:59:14;24.90;35.50
56268;DHT22;42175;46.930;9.532;2023-06-14T11:04:17;25.00;35.50
56268;DHT22;42175;46.930;9.532;2023-06-14T11:06:50;25.10;35.70
56268;DHT22;42175;46.930;9.532;2023-06-14T11:10:03;25.20;35.70
56268;DHT22;42175;46.930;9.532;2023-06-14T11:12:32;25.20;36.10
56268;DHT22;42175;46.930;9.532;2023-06-14T11:14:58;25.10;36.30
56268;DHT22;42175;46.930;9.532;2023-06-14T11:17:25;25.10;36.20
56268;DHT22;42175;46.930;9.532;2023-06-14T11:20:07;25.20;35.60
56268;DHT22;42175;46.930;9.532;2023-06-14T11:22:40;25.30;35.10
56268;DHT22;42175;46.930;9.532;2023-06-14T11:25:09;25.20;35.80
56268;DHT22;42175;46.930;9.532;2023-06-14T11:27:35;25.20;36.50
56268;DHT22;42175;46.930;9.532;2023-06-14T11:30:01;25.20;36.40
56268;DHT22;42175;46.930;9.532;2023-06-14T11:32:27;25.30;36.40
56268;DHT22;42175;46.930;9.532;2023-06-14T11:34:53;25.20;36.40
56268;DHT22;42175;46.930;9.532;2023-06-14T11:37:19;25.20;36.40
56268;DHT22;42175;46.930;9.532;2023-06-14T11:39:45;25.30;35.80
56268;DHT22;42175;46.930;9.532;2023-06-14T11:42:17;25.30;36.30
56268;DHT22;42175;46.930;9.532;2023-06-14T11:44:46;25.30;35.70
56268;DHT22;42175;46.930;9.532;2023-06-14T11:47:12;25.30;35.20
56268;DHT22;42175;46.930;9.532;2023-06-14T11:49:38;25.30;35.60
56268;DHT22;42175;46.930;9.532;2023-06-14T11:52:04;25.30;35.50
56268;DHT22;42175;46.930;9.532;2023-06-14T11:54:32;25.30;35.50
56268;DHT22;42175;46.930;9.532;2023-06-14T11:56:58;25.30;35.50
56268;DHT22;42175;46.930;9.532;2023-06-14T11:59:25;25.30;36.00
56268;DHT22;42175;46.930;9.532;2023-06-14T12:01:53;25.30;36.20
56268;DHT22;42175;46.930;9.532;2023-06-14T12:04:29;25.30;36.40
56268;DHT22;42175;46.930;9.532;2023-06-14T12:06:56;25.30;36.30
56268;DHT22;42175;46.930;9.532;2023-06-14T12:09:23;25.40;35.50
56268;DHT22;42175;46.930;9.532;2023-06-14T12:11:59;25.40;36.00
56268;DHT22;42175;46.930;9.532;2023-06-14T12:14:32;25.40;35.90
56268;DHT22;42175;46.930;9.532;2023-06-14T12:17:07;25.40;35.90
56268;DHT22;42175;46.930;9.532;2023-06-14T12:19:41;25.40;35.50
56268;DHT22;42175;46.930;9.532;2023-06-14T12:22:09;25.40;36.00
56268;DHT22;42175;46.930;9.532;2023-06-14T12:24:35;25.40;36.10
56268;DHT22;42175;46.930;9.532;2023-06-14T12:27:01;25.40;36.30
56268;DHT22;42175;46.930;9.532;2023-06-14T12:29:32;25.40;36.60
56268;DHT22;42175;46.930;9.532;2023-06-14T12:31:58;25.40;36.30
56268;DHT22;42175;46.930;9.532;2023-06-14T12:34:24;25.40;36.40
56268;DHT22;42175;46.930;9.532;2023-06-14T12:36:53;25.40;36.40
56268;DHT22;42175;46.930;9.532;2023-06-14T12:39:20;25.40;36.10
56268;DHT22;42175;46.930;9.532;2023-06-14T12:41:46;25.40;36.70
56268;DHT22;42175;46.930;9.532;2023-06-14T12:44:12;25.40;37.00
56268;DHT22;42175;46.930;9.532;2023-06-14T12:46:39;25.40;37.10
56268;DHT22;42175;46.930;9.532;2023-06-14T12:49:07;25.40;37.00
56268;DHT22;42175;46.930;9.532;2023-06-14T12:51:33;25.50;36.00
56268;DHT22;42175;46.930;9.532;2023-06-14T12:53:59;25.50;36.50
56268;DHT22;42175;46.930;9.532;2023-06-14T12:56:25;25.50;35.50
56268;DHT22;42175;46.930;9.532;2023-06-14T12:58:52;25.50;35.90
56268;DHT22;42175;46.930;9.532;2023-06-14T13:01:18;25.40;36.10
56268;DHT22;42175;46.930;9.532;2023-06-14T13:03:44;25.40;35.20
56268;DHT22;42175;46.930;9.532;2023-06-14T13:06:10;25.50;34.80
56268;DHT22;42175;46.930;9.532;2023-06-14T13:08:36;25.50;34.70
56268;DHT22;42175;46.930;9.532;2023-06-14T13:11:02;25.40;35.30
56268;DHT22;42175;46.930;9.532;2023-06-14T13:13:28;25.40;35.80
56268;DHT22;42175;46.930;9.532;2023-06-14T13:15:53;25.40;36.00
56268;DHT22;42175;46.930;9.532;2023-06-14T13:18:19;25.40;36.20
56268;DHT22;42175;46.930;9.532;2023-06-14T13:20:46;25.40;36.50
56268;DHT22;42175;46.930;9.532;2023-06-14T13:23:12;25.40;36.70
56268;DHT22;42175;46.930;9.532;2023-06-14T13:25:39;25.40;37.50
56268;DHT22;42175;46.930;9.532;2023-06-14T13:28:05;25.40;36.90
56268;DHT22;42175;46.930;9.532;2023-06-14T13:30:32;25.30;36.80
56268;DHT22;42175;46.930;9.532;2023-06-14T13:32:58;25.30;36.90
56268;DHT22;42175;46.930;9.532;2023-06-14T13:35:24;25.30;37.10
56268;DHT22;42175;46.930;9.532;2023-06-14T13:37:51;25.30;37.10
56268;DHT22;42175;46.930;9.532;2023-06-14T13:40:16;25.30;37.10
56268;DHT22;42175;46.930;9.532;2023-06-14T13:42:43;25.30;36.80
56268;DHT22;42175;46.930;9.532;2023-06-14T13:45:11;25.20;37.20
56268;DHT22;42175;46.930;9.532;2023-06-14T13:47:37;25.20;36.60
56268;DHT22;42175;46.930;9.532;2023-06-14T13:50:04;25.20;36.90
56268;DHT22;42175;46.930;9.532;2023-06-14T13:52:30;25.20;36.80
56268;DHT22;42175;46.930;9.532;2023-06-14T13:54:56;25.20;37.30
56268;DHT22;42175;46.930;9.532;2023-06-14T13:57:22;25.30;37.20
56268;DHT22;42175;46.930;9.532;2023-06-14T13:59:48;25.20;36.70
56268;DHT22;42175;46.930;9.532;2023-06-14T14:02:15;25.20;36.60
56268;DHT22;42175;46.930;9.532;2023-06-14T14:04:41;25.20;36.00
56268;DHT22;42175;46.930;9.532;2023-06-14T14:07:07;25.30;36.80
56268;DHT22;42175;46.930;9.532;2023-06-14T14:09:34;25.20;36.30
56268;DHT22;42175;46.930;9.532;2023-06-14T14:12:00;25.30;37.20
56268;DHT22;42175;46.930;9.532;2023-06-14T14:14:28;25.30;37.20
56268;DHT22;42175;46.930;9.532;2023-06-14T14:16:54;25.20;37.30
56268;DHT22;42175;46.930;9.532;2023-06-14T14:19:21;25.30;37.40
56268;DHT22;42175;46.930;9.532;2023-06-14T14:21:47;25.30;37.30
56268;DHT22;42175;46.930;9.532;2023-06-14T14:24:13;25.30;37.20
56268;DHT22;42175;46.930;9.532;2023-06-14T14:26:39;25.30;37.20
56268;DHT22;42175;46.930;9.532;2023-06-14T14:29:05;25.30;37.00
56268;DHT22;42175;46.930;9.532;2023-06-14T14:31:31;25.30;37.20
56268;DHT22;42175;46.930;9.532;2023-06-14T14:33:57;25.30;37.50
56268;DHT22;42175;46.930;9.532;2023-06-14T14:36:23;25.30;37.60
56268;DHT22;42175;46.930;9.532;2023-06-14T14:38:49;25.30;37.60
56268;DHT22;42175;46.930;9.532;2023-06-14T14:41:17;25.40;37.70
56268;DHT22;42175;46.930;9.532;2023-06-14T14:43:42;25.40;37.40
56268;DHT22;42175;46.930;9.532;2023-06-14T14:46:08;25.40;36.80
56268;DHT22;42175;46.930;9.532;2023-06-14T14:48:34;25.40;35.20
56268;DHT22;42175;46.930;9.532;2023-06-14T14:50:59;25.40;36.90
56268;DHT22;42175;46.930;9.532;2023-06-14T14:53:25;25.50;37.30
56268;DHT22;42175;46.930;9.532;2023-06-14T14:55:51;25.40;36.50
56268;DHT22;42175;46.930;9.532;2023-06-14T14:58:16;25.40;36.20
56268;DHT22;42175;46.930;9.532;2023-06-14T15:00:47;25.40;35.40
56268;DHT22;42175;46.930;9.532;2023-06-14T15:03:13;25.50;35.90
56268;DHT22;42175;46.930;9.532;2023-06-14T15:05:40;25.50;36.30
56268;DHT22;42175;46.930;9.532;2023-06-14T15:08:06;25.50;35.90
56268;DHT22;42175;46.930;9.532;2023-06-14T15:10:39;25.50;36.50
56268;DHT22;42175;46.930;9.532;2023-06-14T15:13:08;25.50;36.10
56268;DHT22;42175;46.930;9.532;2023-06-14T15:15:35;25.50;36.10
56268;DHT22;42175;46.930;9.532;2023-06-14T15:18:01;25.50;36.80
56268;DHT22;42175;46.930;9.532;2023-06-14T15:20:27;25.60;35.80
56268;DHT22;42175;46.930;9.532;2023-06-14T15:22:53;25.50;36.00
56268;DHT22;42175;46.930;9.532;2023-06-14T15:25:28;25.50;34.90
56268;DHT22;42175;46.930;9.532;2023-06-14T15:27:53;25.40;34.60
56268;DHT22;42175;46.930;9.532;2023-06-14T15:30:20;25.50;35.20
56268;DHT22;42175;46.930;9.532;2023-06-14T15:32:46;25.40;35.10
56268;DHT22;42175;46.930;9.532;2023-06-14T15:35:12;25.40;34.50
56268;DHT22;42175;46.930;9.532;2023-06-14T15:37:38;25.40;35.10
56268;DHT22;42175;46.930;9.532;2023-06-14T15:40:05;25.40;34.80
56268;DHT22;42175;46.930;9.532;2023-06-14T15:42:31;25.40;34.30
56268;DHT22;42175;46.930;9.532;2023-06-14T15:44:57;25.40;34.40